Terminal Aerodrome Forecast
Issued by NWS

Home | Current Version | Previous Version | Text Only | Print | Product List | Glossary On
Versions: 1 2 3 4 5 6 7 8 9 10 11 12 13 14 15 16 17 18 19
218
FTUS41 KBTV 280101 AAA
TAFMPV
TAF AMD
KMPV 280101Z 2801/2824 16009KT P6SM OVC028
     FM280700 17008KT P6SM OVC015
      TEMPO 2808/2811 4SM -SHRA BR OVC015
     FM281300 21006KT P6SM BKN035
     FM281800 26008KT P6SM SKC=

USA.gov is the U.S. government's official web portal to all federal, state and local government web resources and services.